createdAt,value
2017-09-29T00:00:03.940Z,1000.03
2017-09-29T00:01:03.362Z,1000.02
2017-09-29T00:02:03.299Z,999.97
2017-09-29T00:03:03.348Z,999.99
2017-09-29T00:04:02.670Z,999.99
2017-09-29T00:05:02.809Z,999.97
2017-09-29T00:06:02.762Z,1000.01
2017-09-29T00:07:02.809Z,1000.01
2017-09-29T00:08:02.753Z,999.97
2017-09-29T00:09:02.801Z,1000.08
2017-09-29T00:10:02.739Z,1000.01
2017-09-29T00:11:03.975Z,1000.01
2017-09-29T00:12:03.925Z,999.98
2017-09-29T00:13:03.968Z,999.94
2017-09-29T00:14:04.000Z,1000.05
2017-09-29T00:15:03.942Z,999.94
2017-09-29T00:16:04.276Z,999.95
2017-09-29T00:17:04.111Z,999.89
2017-09-29T00:18:04.051Z,999.99
2017-09-29T00:19:03.385Z,999.97
2017-09-29T00:20:02.621Z,999.90
2017-09-29T00:21:02.765Z,999.97
2017-09-29T00:22:02.806Z,1000.01
2017-09-29T00:23:02.857Z,1000.01
2017-09-29T00:24:02.792Z,1000.02
2017-09-29T00:25:02.834Z,1000.00
2017-09-29T00:26:02.824Z,999.96
2017-09-29T00:27:03.853Z,999.99
2017-09-29T00:28:02.774Z,999.95
2017-09-29T00:29:03.500Z,999.96
2017-09-29T00:30:03.637Z,999.95
2017-09-29T00:31:04.185Z,999.98
2017-09-29T00:32:04.123Z,999.95
2017-09-29T00:33:04.067Z,999.97
2017-09-29T00:34:04.103Z,999.90
2017-09-29T00:35:03.686Z,999.95
2017-09-29T00:36:03.522Z,999.94
2017-09-29T00:37:03.445Z,999.95
2017-09-29T00:38:03.488Z,999.92
2017-09-29T00:39:02.828Z,999.92
2017-09-29T00:40:02.874Z,999.90
2017-09-29T00:41:02.818Z,999.94
2017-09-29T00:42:02.956Z,999.92
2017-09-29T00:43:02.900Z,999.86
2017-09-29T00:44:02.835Z,999.92
2017-09-29T00:45:03.675Z,999.86
2017-09-29T00:46:03.511Z,999.83
2017-09-29T00:47:04.150Z,999.86
2017-09-29T00:48:04.188Z,999.90
2017-09-29T00:49:04.134Z,999.81
2017-09-29T00:50:04.059Z,999.86
2017-09-29T00:51:04.091Z,999.88
2017-09-29T00:52:03.436Z,999.90
2017-09-29T00:53:03.590Z,999.92
2017-09-29T00:54:03.515Z,999.92
2017-09-29T00:55:03.647Z,999.91
2017-09-29T00:56:03.591Z,999.90
2017-09-29T00:57:03.623Z,999.90
2017-09-29T00:58:02.951Z,999.88
2017-09-29T00:59:02.986Z,999.81
2017-09-29T01:00:02.913Z,999.87
2017-09-29T01:02:35.324Z,999.89
2017-09-29T01:02:35.931Z,999.80
2017-09-29T01:03:02.894Z,999.80
2017-09-29T01:06:00.019Z,999.88
2017-09-29T01:06:00.834Z,999.83
2017-09-29T01:06:02.850Z,999.79
2017-09-29T01:08:35.244Z,999.80
2017-09-29T01:08:35.877Z,999.83
2017-09-29T01:09:03.072Z,999.74
2017-09-29T01:11:41.968Z,999.77
2017-09-29T01:11:42.779Z,999.77
2017-09-29T01:15:07.264Z,999.75
2017-09-29T01:15:08.077Z,999.78
2017-09-29T01:15:08.887Z,999.74
2017-09-29T01:15:09.595Z,999.70
2017-09-29T01:18:00.547Z,999.70
2017-09-29T01:18:01.361Z,999.74
2017-09-29T01:18:02.978Z,999.75
2017-09-29T01:20:33.872Z,999.75
2017-09-29T01:20:35.189Z,999.77
2017-09-29T01:20:36.001Z,999.73
2017-09-29T01:21:02.962Z,999.74
2017-09-29T01:23:43.963Z,999.68
2017-09-29T01:23:44.570Z,999.75
2017-09-29T01:24:02.918Z,999.67
2017-09-29T01:26:34.903Z,999.78
2017-09-29T01:26:35.615Z,999.77
2017-09-29T01:27:03.002Z,999.68
2017-09-29T01:32:23.198Z,999.68
2017-09-29T01:32:24.009Z,999.62
2017-09-29T01:32:24.620Z,999.73
2017-09-29T01:32:25.630Z,999.66
2017-09-29T01:32:26.445Z,999.72
2017-09-29T01:32:27.260Z,999.74
2017-09-29T01:39:07.120Z,999.71
2017-09-29T01:39:07.831Z,999.66
2017-09-29T01:39:08.773Z,999.66
2017-09-29T01:39:09.585Z,999.68
2017-09-29T01:39:10.399Z,999.69
2017-09-29T01:39:11.012Z,999.68
2017-09-29T01:39:11.820Z,999.76
2017-09-29T01:41:42.003Z,999.71
2017-09-29T01:41:42.816Z,999.75
2017-09-29T01:44:33.239Z,999.80
2017-09-29T01:44:34.177Z,999.72
2017-09-29T01:44:34.963Z,999.68
2017-09-29T01:45:03.243Z,999.70
2017-09-29T01:47:44.058Z,999.74
2017-09-29T01:47:44.668Z,999.74
2017-09-29T01:50:31.283Z,999.71
2017-09-29T01:50:32.096Z,999.70
2017-09-29T01:50:32.703Z,999.69
2017-09-29T01:51:02.992Z,999.75
2017-09-29T01:53:40.989Z,999.74
2017-09-29T01:53:41.700Z,999.74
2017-09-29T01:56:31.827Z,999.69
2017-09-29T01:56:32.640Z,999.75
2017-09-29T01:56:33.453Z,999.70
2017-09-29T01:57:03.144Z,999.74
2017-09-29T01:59:42.123Z,999.73
2017-09-29T01:59:42.827Z,999.70
2017-09-29T02:00:03.088Z,999.73
2017-09-29T02:01:04.265Z,999.72
2017-09-29T02:02:03.804Z,999.76
2017-09-29T02:03:03.745Z,999.65
2017-09-29T02:04:03.681Z,999.72
2017-09-29T02:05:03.749Z,999.65
2017-09-29T02:06:03.081Z,999.59
2017-09-29T02:07:03.125Z,999.65
2017-09-29T02:08:03.166Z,999.73
2017-09-29T02:09:03.105Z,999.61
2017-09-29T02:10:03.151Z,999.64
2017-09-29T02:11:03.180Z,999.68
2017-09-29T02:12:04.008Z,999.60
2017-09-29T02:13:11.963Z,999.60
2017-09-29T02:14:03.173Z,999.57
2017-09-29T02:15:03.993Z,999.66
2017-09-29T02:16:03.814Z,999.60
2017-09-29T02:17:04.342Z,999.59
2017-09-29T02:18:04.376Z,999.54
2017-09-29T02:19:03.795Z,999.55
2017-09-29T02:20:03.716Z,999.63
2017-09-29T02:21:03.752Z,999.56
2017-09-29T02:22:03.797Z,999.60
2017-09-29T02:23:03.217Z,999.53
2017-09-29T02:24:03.159Z,999.58
2017-09-29T02:25:03.297Z,999.54
2017-09-29T02:26:03.141Z,999.56
2017-09-29T02:27:03.280Z,999.48
2017-09-29T02:28:03.238Z,999.56
2017-09-29T02:29:03.288Z,999.52
2017-09-29T02:30:04.430Z,999.51
2017-09-29T02:31:04.290Z,999.55
2017-09-29T02:32:04.459Z,999.58
2017-09-29T02:33:04.392Z,999.50
2017-09-29T02:34:04.527Z,999.55
2017-09-29T02:35:04.458Z,999.42
2017-09-29T02:36:04.499Z,999.51
2017-09-29T02:37:03.848Z,999.52
2017-09-29T02:38:03.892Z,999.46
2017-09-29T02:39:03.843Z,999.50
2017-09-29T02:40:03.238Z,999.48
2017-09-29T02:41:03.988Z,999.41
2017-09-29T02:42:03.215Z,999.43
2017-09-29T02:43:03.259Z,999.42
2017-09-29T02:44:03.408Z,999.41
2017-09-29T02:45:03.350Z,999.46
2017-09-29T02:46:03.394Z,999.42
2017-09-29T02:47:03.425Z,999.39
2017-09-29T02:48:03.269Z,999.42
2017-09-29T02:49:04.493Z,999.43
2017-09-29T02:50:04.445Z,999.43
2017-09-29T02:51:04.517Z,999.43
2017-09-29T02:52:04.539Z,999.36
2017-09-29T02:53:04.473Z,999.47
2017-09-29T02:54:04.697Z,999.46
2017-09-29T02:55:04.045Z,999.45
2017-09-29T02:56:03.867Z,999.46
2017-09-29T02:57:03.286Z,999.51
2017-09-29T02:58:03.325Z,999.49
2017-09-29T02:59:03.258Z,999.38
2017-09-29T03:00:03.292Z,999.42
2017-09-29T03:01:03.328Z,999.46
2017-09-29T03:02:03.348Z,999.38
2017-09-29T03:03:03.285Z,999.41
2017-09-29T03:04:03.297Z,999.38
2017-09-29T03:05:04.539Z,999.38
2017-09-29T03:06:04.375Z,999.45
2017-09-29T03:07:04.527Z,999.46
2017-09-29T03:08:04.561Z,999.39
2017-09-29T03:09:04.606Z,999.38
2017-09-29T03:10:04.649Z,999.39
2017-09-29T03:11:04.673Z,999.39
2017-09-29T03:12:04.018Z,999.37
2017-09-29T03:13:04.057Z,999.44
2017-09-29T03:14:03.994Z,999.35
2017-09-29T03:15:04.046Z,999.39
2017-09-29T03:16:03.279Z,999.33
2017-09-29T03:17:03.412Z,999.38
2017-09-29T03:18:03.352Z,999.35
2017-09-29T03:19:03.391Z,999.36
2017-09-29T03:20:03.314Z,999.40
2017-09-29T03:21:03.992Z,999.36
2017-09-29T03:22:04.629Z,999.34
2017-09-29T03:23:04.595Z,999.35
2017-09-29T03:24:04.732Z,999.28
2017-09-29T03:25:04.587Z,999.33
2017-09-29T03:26:04.619Z,999.29
2017-09-29T03:27:04.665Z,999.28
2017-09-29T03:28:04.177Z,999.28
2017-09-29T03:29:04.223Z,999.27
2017-09-29T03:30:04.061Z,999.24
2017-09-29T03:31:03.988Z,999.23
2017-09-29T03:32:03.408Z,999.23
2017-09-29T03:33:03.436Z,999.24
2017-09-29T03:34:03.469Z,999.31
2017-09-29T03:35:23.052Z,999.31
2017-09-29T03:37:03.038Z,999.28
2017-09-29T03:37:03.849Z,999.30
2017-09-29T03:37:04.870Z,999.30
2017-09-29T03:38:04.101Z,999.17
2017-09-29T03:39:04.650Z,999.29
2017-09-29T03:40:04.196Z,999.26
2017-09-29T03:41:04.630Z,999.23
2017-09-29T03:42:04.678Z,999.27
2017-09-29T03:43:04.102Z,999.18
2017-09-29T03:44:04.684Z,999.23
2017-09-29T03:45:04.912Z,999.23
2017-09-29T03:46:04.038Z,999.25
2017-09-29T03:47:04.183Z,999.26
2017-09-29T03:48:04.043Z,999.19
2017-09-29T03:49:03.366Z,999.20
2017-09-29T03:50:03.409Z,999.19
2017-09-29T03:51:03.430Z,999.14
2017-09-29T03:52:03.475Z,999.19
2017-09-29T03:53:03.510Z,999.10
2017-09-29T03:54:03.440Z,999.20
2017-09-29T03:55:04.066Z,999.21
2017-09-29T03:56:04.702Z,999.20
2017-09-29T03:57:04.731Z,999.20
2017-09-29T03:58:04.658Z,999.15
2017-09-29T03:59:04.794Z,999.11
2017-09-29T04:00:04.850Z,999.16
2017-09-29T04:01:04.781Z,999.18
2017-09-29T04:02:04.811Z,999.18
2017-09-29T04:03:04.844Z,999.14
2017-09-29T04:04:04.189Z,999.18
2017-09-29T04:05:04.131Z,999.20
2017-09-29T04:06:03.462Z,999.16
2017-09-29T04:07:03.494Z,999.17
2017-09-29T04:08:03.535Z,999.07
2017-09-29T04:09:03.598Z,999.14
2017-09-29T04:10:03.740Z,999.12
2017-09-29T04:11:03.591Z,999.18
2017-09-29T04:12:03.642Z,999.13
2017-09-29T04:13:03.574Z,999.15
2017-09-29T04:14:04.726Z,999.13
2017-09-29T04:15:04.862Z,999.12
2017-09-29T04:16:04.907Z,999.10
2017-09-29T04:17:04.428Z,999.15
2017-09-29T04:18:04.783Z,999.16
2017-09-29T04:19:04.827Z,999.18
2017-09-29T04:20:04.164Z,999.16
2017-09-29T04:21:04.306Z,999.16
2017-09-29T04:22:04.327Z,999.19
2017-09-29T04:23:03.551Z,999.14
2017-09-29T04:24:04.301Z,999.14
2017-09-29T04:25:15.279Z,999.13
2017-09-29T04:26:03.596Z,999.18
2017-09-29T04:27:04.238Z,999.13
2017-09-29T04:28:04.277Z,999.17
2017-09-29T04:29:04.218Z,999.12
2017-09-29T04:30:04.260Z,999.16
2017-09-29T04:31:04.893Z,999.14
2017-09-29T04:32:04.920Z,999.19
2017-09-29T04:33:04.857Z,999.22
2017-09-29T04:34:04.905Z,999.17
2017-09-29T04:35:04.932Z,999.17
2017-09-29T04:36:04.970Z,999.10
2017-09-29T04:37:04.306Z,999.20
2017-09-29T04:38:04.233Z,999.16
2017-09-29T04:39:04.177Z,999.20
2017-09-29T04:40:03.485Z,999.22
2017-09-29T04:41:04.472Z,999.19
2017-09-29T04:42:03.691Z,999.20
2017-09-29T04:43:03.616Z,999.19
2017-09-29T04:44:03.609Z,999.19
2017-09-29T04:45:03.661Z,999.20
2017-09-29T04:46:03.682Z,999.20
2017-09-29T04:47:04.813Z,999.16
2017-09-29T04:48:03.726Z,999.17
2017-09-29T04:49:04.442Z,999.22
2017-09-29T04:50:04.884Z,999.23
2017-09-29T04:51:04.911Z,999.25
2017-09-29T04:52:04.943Z,999.21
2017-09-29T04:53:04.873Z,999.14
2017-09-29T04:54:04.902Z,999.16
2017-09-29T04:55:04.934Z,999.18
2017-09-29T04:56:04.258Z,999.16
2017-09-29T04:57:04.281Z,999.13
2017-09-29T04:58:04.324Z,999.18
2017-09-29T04:59:04.450Z,999.08
2017-09-29T05:00:03.716Z,999.09
2017-09-29T05:01:03.642Z,999.14
2017-09-29T05:02:03.658Z,999.11
2017-09-29T05:03:03.695Z,999.09
2017-09-29T05:04:03.718Z,999.06
2017-09-29T05:05:04.450Z,999.08
2017-09-29T05:06:04.666Z,998.99
2017-09-29T05:07:05.132Z,999.02
2017-09-29T05:08:05.038Z,999.10
2017-09-29T05:09:05.070Z,999.07
2017-09-29T05:10:04.936Z,999.06
2017-09-29T05:11:05.366Z,999.09
2017-09-29T05:12:06.002Z,999.08
2017-09-29T05:13:03.808Z,999.07
2017-09-29T05:14:04.939Z,999.02
2017-09-29T05:15:04.476Z,999.06
2017-09-29T05:16:05.000Z,999.07
2017-09-29T05:17:20.955Z,999.13
2017-09-29T05:18:03.837Z,999.09
2017-09-29T05:19:04.363Z,999.07
2017-09-29T05:20:04.407Z,999.03
2017-09-29T05:21:04.544Z,999.08
2017-09-29T05:22:04.419Z,999.13
2017-09-29T05:23:04.694Z,999.13
2017-09-29T05:24:05.035Z,999.08
2017-09-29T05:25:04.649Z,999.15
2017-09-29T05:26:05.078Z,999.06
2017-09-29T05:27:05.114Z,999.16
2017-09-29T05:28:05.281Z,999.16
2017-09-29T05:29:05.195Z,999.13
2017-09-29T05:30:04.527Z,999.11
2017-09-29T05:31:04.873Z,999.08
2017-09-29T05:32:04.396Z,999.16
2017-09-29T05:33:04.466Z,999.22
2017-09-29T05:34:03.802Z,999.16
2017-09-29T05:35:03.837Z,999.20
2017-09-29T05:36:03.756Z,999.18
2017-09-29T05:37:03.784Z,999.17
2017-09-29T05:38:03.820Z,999.15
2017-09-29T05:39:03.846Z,999.17
2017-09-29T05:40:04.624Z,999.21
2017-09-29T05:41:05.252Z,999.14
2017-09-29T05:42:05.386Z,999.25
2017-09-29T05:43:04.779Z,999.20
2017-09-29T05:44:05.110Z,999.29
2017-09-29T05:45:05.063Z,999.25
2017-09-29T05:46:04.694Z,999.24
2017-09-29T05:47:05.634Z,999.30
2017-09-29T05:48:04.868Z,999.21
2017-09-29T05:49:03.775Z,999.28
2017-09-29T05:50:03.829Z,999.27
2017-09-29T05:51:06.195Z,999.22
2017-09-29T05:52:03.919Z,999.22
2017-09-29T05:53:04.534Z,999.25
2017-09-29T05:54:04.873Z,999.30
2017-09-29T05:55:04.504Z,999.31
2017-09-29T05:56:05.365Z,999.23
2017-09-29T05:57:04.593Z,999.25
2017-09-29T05:58:04.555Z,999.30
2017-09-29T05:59:04.817Z,999.30
2017-09-29T06:00:05.280Z,999.23
2017-09-29T06:01:05.307Z,999.21
2017-09-29T06:02:05.280Z,999.18
2017-09-29T06:03:05.296Z,999.24
2017-09-29T06:04:04.503Z,999.23
2017-09-29T06:05:04.649Z,999.18
2017-09-29T06:06:04.592Z,999.18
2017-09-29T06:07:04.529Z,999.12
2017-09-29T06:08:05.583Z,999.20
2017-09-29T06:09:03.894Z,999.18
2017-09-29T06:10:03.927Z,999.18
2017-09-29T06:11:03.967Z,999.13
2017-09-29T07:18:40.262Z,999.30
2017-09-29T07:19:42.820Z,999.28
2017-09-29T07:20:54.668Z,999.23
2017-09-29T07:21:31.049Z,999.30
2017-09-29T07:22:40.108Z,999.26
2017-09-29T07:24:01.078Z,999.33
2017-09-29T07:25:16.848Z,999.28
2017-09-29T07:26:32.512Z,999.26
2017-09-29T07:28:05.600Z,999.41
2017-09-29T07:29:13.242Z,999.33
2017-09-29T07:30:33.020Z,999.32
2017-09-29T07:31:40.655Z,999.33
2017-09-29T07:33:00.420Z,999.38
2017-09-29T07:34:08.251Z,999.39
2017-09-29T07:35:22.204Z,999.35
2017-09-29T07:36:30.043Z,999.36
2017-09-29T07:37:54.505Z,999.38
2017-09-29T07:39:02.143Z,999.37
2017-09-29T07:40:15.008Z,999.39
2017-09-29T07:41:27.743Z,999.39
2017-09-29T07:42:52.132Z,999.34
2017-09-29T07:44:01.059Z,999.34
2017-09-29T07:45:13.823Z,999.35
2017-09-29T07:46:21.460Z,999.43
2017-09-29T07:47:50.935Z,999.39
2017-09-29T07:49:00.882Z,999.37
2017-09-29T07:50:13.760Z,999.31
2017-09-29T07:51:26.525Z,999.28
2017-09-29T07:52:50.992Z,999.31
2017-09-29T07:54:01.157Z,999.34
2017-09-29T07:55:13.904Z,999.30
2017-09-29T07:56:26.653Z,999.35
2017-09-29T07:57:51.036Z,999.32
2017-09-29T07:59:00.892Z,999.35
2017-09-29T08:00:13.703Z,999.29
2017-09-29T08:01:26.461Z,999.34
2017-09-29T08:02:50.871Z,999.32
2017-09-29T08:04:01.002Z,999.30
2017-09-29T08:05:13.744Z,999.24
2017-09-29T08:06:26.422Z,999.33
2017-09-29T08:07:51.309Z,999.35
2017-09-29T08:09:00.940Z,999.29
2017-09-29T08:10:13.718Z,999.30
2017-09-29T08:11:26.593Z,999.32
2017-09-29T08:12:51.177Z,999.22
2017-09-29T08:14:01.113Z,999.24
2017-09-29T08:15:13.867Z,999.27
2017-09-29T08:16:26.816Z,999.28
2017-09-29T08:17:51.391Z,999.28
2017-09-29T08:19:01.019Z,999.22
2017-09-29T08:20:13.713Z,999.23
2017-09-29T08:21:26.567Z,999.24
2017-09-29T08:22:50.965Z,999.26
2017-09-29T08:24:01.229Z,999.22
2017-09-29T08:25:14.018Z,999.20
2017-09-29T08:26:21.675Z,999.20
2017-09-29T08:27:51.204Z,999.22
2017-09-29T08:28:58.957Z,999.19
2017-09-29T08:30:16.987Z,999.22
2017-09-29T08:31:24.554Z,999.21
2017-09-29T08:32:54.158Z,999.12
2017-09-29T08:34:01.806Z,999.13
2017-09-29T08:35:14.564Z,999.07
2017-09-29T08:36:27.437Z,999.12
2017-09-29T08:37:52.159Z,999.16
2017-09-29T08:39:01.110Z,999.13
2017-09-29T08:40:13.917Z,999.13
2017-09-29T08:41:26.681Z,999.14
2017-09-29T08:42:51.260Z,999.10
2017-09-29T08:44:01.208Z,999.08
2017-09-29T08:45:13.995Z,999.17
2017-09-29T08:46:26.865Z,999.09
2017-09-29T08:47:51.574Z,999.05
2017-09-29T08:49:01.041Z,999.06
2017-09-29T08:50:13.739Z,999.02
2017-09-29T08:51:26.514Z,999.04
2017-09-29T08:52:50.916Z,999.02
2017-09-29T08:54:01.285Z,999.05
2017-09-29T08:55:14.054Z,999.05
2017-09-29T08:56:26.823Z,999.03
2017-09-29T08:57:51.247Z,999.00
2017-09-29T08:59:01.210Z,998.95
2017-09-29T09:00:14.139Z,999.00
2017-09-29T09:01:26.917Z,998.98
2017-09-29T09:02:51.311Z,998.97
2017-09-29T09:04:01.254Z,998.99
2017-09-29T09:05:13.016Z,999.00
2017-09-29T09:06:42.705Z,998.95
2017-09-29T09:08:01.273Z,998.96
2017-09-29T09:09:14.033Z,999.00
2017-09-29T09:10:26.844Z,998.94
2017-09-29T09:11:51.519Z,998.98
2017-09-29T09:13:01.174Z,998.92
2017-09-29T09:14:13.953Z,998.99
2017-09-29T09:15:26.726Z,998.96
2017-09-29T09:16:51.311Z,998.95
2017-09-29T09:18:01.271Z,998.90
2017-09-29T09:19:14.060Z,998.89
2017-09-29T09:20:26.832Z,998.91
2017-09-29T09:21:51.532Z,998.89
2017-09-29T09:23:01.284Z,998.88
2017-09-29T09:24:14.052Z,998.85
2017-09-29T09:25:26.828Z,998.82
2017-09-29T09:26:51.220Z,998.87
2017-09-29T09:28:01.272Z,998.80
2017-09-29T09:29:14.081Z,998.79
2017-09-29T09:30:21.735Z,998.83
2017-09-29T09:31:51.142Z,998.77
2017-09-29T09:33:01.196Z,998.81
2017-09-29T09:34:13.970Z,998.76
2017-09-29T09:35:26.696Z,998.78
2017-09-29T09:36:51.203Z,998.77
2017-09-29T09:38:01.251Z,998.76
2017-09-29T09:39:14.004Z,998.79
2017-09-29T09:40:26.788Z,998.86
2017-09-29T09:41:51.480Z,998.81
2017-09-29T09:43:01.337Z,998.81
2017-09-29T09:44:14.095Z,998.72
2017-09-29T09:45:26.861Z,998.80
2017-09-29T09:46:51.251Z,998.71
2017-09-29T09:48:01.550Z,998.82
2017-09-29T09:49:14.300Z,998.69
2017-09-29T09:50:27.062Z,998.71
2017-09-29T09:51:51.755Z,998.64
2017-09-29T09:53:01.324Z,998.59
2017-09-29T09:54:14.002Z,998.53
2017-09-29T09:55:26.758Z,998.56
2017-09-29T09:56:51.164Z,998.48
2017-09-29T09:58:01.313Z,998.53
2017-09-29T09:59:14.089Z,998.43
2017-09-29T10:00:26.862Z,998.53
2017-09-29T10:01:51.510Z,998.44
2017-09-29T10:03:01.370Z,998.45
2017-09-29T10:04:14.221Z,998.50
2017-09-29T10:05:21.888Z,998.46
2017-09-29T10:06:51.718Z,998.44
2017-09-29T10:08:01.395Z,998.49
2017-09-29T10:09:14.170Z,998.47
2017-09-29T10:10:26.976Z,998.44
2017-09-29T10:11:51.475Z,998.47
2017-09-29T10:13:01.428Z,998.47
2017-09-29T10:14:14.311Z,998.43
2017-09-29T10:15:26.973Z,998.34
2017-09-29T10:16:51.366Z,998.33
2017-09-29T10:18:01.329Z,998.33
2017-09-29T10:19:14.111Z,998.37
2017-09-29T10:20:26.884Z,998.31
2017-09-29T10:21:51.563Z,998.28
2017-09-29T10:23:01.430Z,998.30
2017-09-29T10:24:14.391Z,998.33
2017-09-29T10:25:27.249Z,998.26
2017-09-29T10:26:51.640Z,998.24
2017-09-29T10:28:01.406Z,998.27
2017-09-29T10:29:14.253Z,998.20
2017-09-29T10:30:27.026Z,998.18
2017-09-29T10:31:51.610Z,998.25
2017-09-29T10:33:01.562Z,998.20
2017-09-29T10:34:14.315Z,998.22
2017-09-29T10:35:27.075Z,998.24
2017-09-29T10:36:51.687Z,998.16
2017-09-29T10:38:01.441Z,998.22
2017-09-29T10:39:14.194Z,998.18
2017-09-29T10:40:27.064Z,998.19
2017-09-29T10:41:51.947Z,998.17
2017-09-29T10:43:01.448Z,998.19
2017-09-29T10:44:14.210Z,998.09
2017-09-29T10:45:26.967Z,998.08
2017-09-29T10:46:51.559Z,998.07
2017-09-29T10:48:01.518Z,998.07
2017-09-29T10:49:14.284Z,998.04
2017-09-29T10:50:21.979Z,998.10
2017-09-29T10:51:51.678Z,998.03
2017-09-29T10:53:01.519Z,998.04
2017-09-29T10:54:14.289Z,998.05
2017-09-29T10:55:26.961Z,998.06
2017-09-29T10:56:51.359Z,998.04
2017-09-29T10:58:01.665Z,998.01
2017-09-29T10:59:14.419Z,998.02
2017-09-29T11:00:27.195Z,998.02
2017-09-29T11:01:51.785Z,998.06
2017-09-29T11:03:01.531Z,997.94
2017-09-29T11:04:14.400Z,998.00
2017-09-29T11:05:27.165Z,997.96
2017-09-29T11:06:51.654Z,997.92
2017-09-29T11:08:01.594Z,997.89
2017-09-29T11:09:14.357Z,997.92
2017-09-29T11:10:27.211Z,997.88
2017-09-29T11:11:51.789Z,997.88
2017-09-29T11:13:01.535Z,997.88
2017-09-29T11:14:14.302Z,997.84
2017-09-29T11:15:27.069Z,997.83
2017-09-29T11:16:51.497Z,997.85
2017-09-29T11:18:01.642Z,997.79
2017-09-29T11:19:14.400Z,997.77
2017-09-29T11:20:27.368Z,997.75
2017-09-29T11:21:52.088Z,997.79
2017-09-29T11:23:01.669Z,997.76
2017-09-29T11:24:09.317Z,997.83
2017-09-29T11:25:39.019Z,997.81
2017-09-29T11:26:56.571Z,997.78
2017-09-29T11:28:14.452Z,997.80
2017-09-29T11:29:27.207Z,997.73
2017-09-29T11:30:51.591Z,997.73
2017-09-29T11:32:01.549Z,997.66
2017-09-29T11:33:14.320Z,997.76
2017-09-29T11:34:27.080Z,997.68
2017-09-29T11:35:51.599Z,995.57
2017-09-29T11:37:01.646Z,997.67
2017-09-29T11:38:09.313Z,997.62
2017-09-29T11:39:38.854Z,997.63
2017-09-29T11:41:01.621Z,997.57
2017-09-29T11:42:14.479Z,997.62
2017-09-29T11:43:27.249Z,997.58
2017-09-29T11:44:51.627Z,997.58
2017-09-29T11:46:01.594Z,997.52
2017-09-29T11:47:14.254Z,997.54
2017-09-29T11:48:27.016Z,997.51
2017-09-29T11:49:51.598Z,997.46
2017-09-29T11:51:01.638Z,997.49
2017-09-29T11:52:14.412Z,997.47
2017-09-29T11:53:22.069Z,997.49
2017-09-29T11:54:51.881Z,997.39
2017-09-29T11:56:01.891Z,997.42
2017-09-29T11:57:14.644Z,997.43
2017-09-29T11:58:27.406Z,997.44
2017-09-29T11:59:52.186Z,997.46
2017-09-29T12:01:01.609Z,997.45
2017-09-29T12:02:14.471Z,997.44
2017-09-29T12:03:27.142Z,997.42
2017-09-29T12:04:51.799Z,997.44
2017-09-29T12:06:01.860Z,997.37
2017-09-29T12:07:14.641Z,997.38
2017-09-29T12:08:27.507Z,997.32
2017-09-29T12:09:52.093Z,997.27
2017-09-29T12:11:01.784Z,997.32
2017-09-29T12:12:14.657Z,997.25
2017-09-29T12:13:27.441Z,997.20
2017-09-29T12:14:51.837Z,997.28
2017-09-29T12:16:01.601Z,997.24
2017-09-29T12:17:14.362Z,997.28
2017-09-29T12:18:27.040Z,997.25
2017-09-29T12:19:51.623Z,997.23
2017-09-29T12:21:02.115Z,997.30
2017-09-29T12:22:30.415Z,997.17
2017-09-29T18:53:01.874Z,996.98
2017-09-29T18:53:06.399Z,997.05
2017-09-29T18:54:07.121Z,997.00
2017-09-29T18:55:07.084Z,996.99
2017-09-29T18:56:07.146Z,997.01
2017-09-29T18:57:08.110Z,997.01
2017-09-29T18:58:06.653Z,996.90
2017-09-29T18:59:06.500Z,996.97
2017-09-29T19:00:07.795Z,996.93
2017-09-29T19:01:07.754Z,997.01
2017-09-29T19:02:07.811Z,996.88
2017-09-29T19:03:07.374Z,996.92
2017-09-29T19:04:07.113Z,996.85
2017-09-29T19:05:07.165Z,996.95
2017-09-29T19:06:07.136Z,996.82
2017-09-29T19:07:07.378Z,996.89
2017-09-29T19:08:06.508Z,996.88
2017-09-29T19:09:06.648Z,996.88
2017-09-29T19:10:06.488Z,996.81
2017-09-29T19:11:06.538Z,996.82
2017-09-29T19:12:06.572Z,996.82
2017-09-29T19:13:06.506Z,996.78
2017-09-29T19:14:07.759Z,996.83
2017-09-29T19:15:07.766Z,996.80
2017-09-29T19:16:07.741Z,996.85
2017-09-29T19:17:07.924Z,996.79
2017-09-29T19:18:07.922Z,996.79
2017-09-29T19:19:07.895Z,996.84
2017-09-29T19:20:07.875Z,996.86
2017-09-29T19:21:07.648Z,996.84
2017-09-29T19:22:07.176Z,996.88
2017-09-29T19:23:07.450Z,996.90
2017-09-29T19:24:07.208Z,996.85
2017-09-29T19:25:07.381Z,996.85
2017-09-29T19:26:07.956Z,996.88
2017-09-29T19:27:07.623Z,996.88
2017-09-29T19:28:06.746Z,996.82
2017-09-29T19:29:06.570Z,996.92
2017-09-29T19:30:06.749Z,996.90
2017-09-29T19:31:06.659Z,996.88
2017-09-29T19:32:07.544Z,996.85
2017-09-29T19:33:07.911Z,996.84
2017-09-29T19:34:07.764Z,996.86
2017-09-29T19:35:08.055Z,996.85
2017-09-29T19:36:07.412Z,996.88
2017-09-29T19:37:08.163Z,996.84
2017-09-29T19:38:07.216Z,996.91
2017-09-29T19:39:08.022Z,996.84
2017-09-29T19:40:07.393Z,996.95
2017-09-29T19:41:07.666Z,996.88
2017-09-29T19:42:08.430Z,996.88
2017-09-29T19:43:06.645Z,996.95
2017-09-29T19:44:06.543Z,996.90
2017-09-29T19:45:06.640Z,996.94
2017-09-29T19:46:06.770Z,996.90
2017-09-29T19:47:06.905Z,996.89
2017-09-29T19:48:06.674Z,996.89
2017-09-29T19:49:07.547Z,996.96
2017-09-29T19:50:07.301Z,996.89
2017-09-29T19:51:08.061Z,996.91
2017-09-29T19:52:08.213Z,996.90
2017-09-29T19:53:07.650Z,996.84
2017-09-29T19:54:08.131Z,996.93
2017-09-29T19:55:07.364Z,996.91
2017-09-29T19:56:07.371Z,996.92
2017-09-29T19:57:07.554Z,996.90
2017-09-29T19:58:07.463Z,996.97
2017-09-29T19:59:07.354Z,996.93
2017-09-29T20:00:07.876Z,996.94
2017-09-29T20:01:06.734Z,996.94
2017-09-29T20:02:07.698Z,996.94
2017-09-29T20:03:06.779Z,996.82
2017-09-29T20:04:06.671Z,996.89
2017-09-29T20:05:07.389Z,996.84
2017-09-29T20:06:07.445Z,996.84
2017-09-29T20:07:07.607Z,996.84
2017-09-29T20:08:08.070Z,996.83
2017-09-29T20:09:07.944Z,996.77
2017-09-29T20:10:07.786Z,996.79
2017-09-29T20:11:07.415Z,996.82
2017-09-29T20:12:08.274Z,996.73
2017-09-29T20:13:08.003Z,996.78
2017-09-29T20:14:07.346Z,996.80
2017-09-29T20:15:07.486Z,996.69
2017-09-29T20:16:07.457Z,996.79
2017-09-29T20:17:07.514Z,996.73
2017-09-29T20:18:06.735Z,996.71
2017-09-29T20:19:06.726Z,996.75
2017-09-29T20:20:06.752Z,996.80
2017-09-29T20:21:06.795Z,996.75
2017-09-29T20:22:06.919Z,996.75
2017-09-29T20:23:06.743Z,996.77
2017-09-29T20:24:07.487Z,996.81
2017-09-29T20:25:08.287Z,996.80
2017-09-29T20:26:07.950Z,996.77
2017-09-29T20:27:08.189Z,996.87
2017-09-29T20:28:08.038Z,996.79
2017-09-29T20:29:07.975Z,996.82
2017-09-29T20:30:07.710Z,996.90
2017-09-29T20:31:08.031Z,996.80
2017-09-29T20:32:07.555Z,996.87
2017-09-29T20:33:07.385Z,996.84
2017-09-29T20:34:07.410Z,996.85
2017-09-29T20:35:06.825Z,996.81
2017-09-29T20:36:06.749Z,996.79
2017-09-29T20:37:06.791Z,996.86
2017-09-29T20:38:06.819Z,996.84
2017-09-29T20:39:06.841Z,996.83
2017-09-29T20:40:06.771Z,996.82
2017-09-29T20:41:07.694Z,996.80
2017-09-29T20:42:07.634Z,996.77
2017-09-29T20:43:08.056Z,996.75
2017-09-29T20:44:08.221Z,996.79
2017-09-29T20:45:08.144Z,996.72
2017-09-29T20:46:08.113Z,996.75
2017-09-29T20:47:07.754Z,996.71
2017-09-29T20:48:07.397Z,996.70
2017-09-29T20:49:07.475Z,996.70
2017-09-29T20:50:07.815Z,996.71
2017-09-29T20:51:06.821Z,996.65
2017-09-29T20:52:07.708Z,996.76
2017-09-29T20:53:07.864Z,996.72
2017-09-29T20:54:06.807Z,996.74
2017-09-29T20:55:06.870Z,996.80
2017-09-29T20:56:07.007Z,996.73
2017-09-29T20:57:06.891Z,996.64
2017-09-29T20:58:08.126Z,996.70
2017-09-29T20:59:07.050Z,996.64
2017-09-29T21:00:07.000Z,996.71
2017-09-29T21:01:06.867Z,996.78